Time;durP1;ratioP1;P1;durP2;ratioP2;P2;SDS_P1;SDS_P2;PMS_P1;PMS_P2;Temp;Humidity;BMP_temperature;BMP_pressure;BME280_temperature;BME280_humidity;BME280_pressure;Samples;Min_cycle;Max_cycle;Signal;HPM_P1;HPM_P2
2021/11/30 00:02:39;;;;;;;2.35;1.42;;;5.90;56.40;;;;;;6174980;28;20355;-69
2021/11/30 00:05:39;;;;;;;3.13;1.92;;;5.90;56.40;;;;;;6197498;28;20035;-70
2021/11/30 00:08:41;;;;;;;5.72;2.22;;;5.90;56.50;;;;;;6173434;28;20045;-70
2021/11/30 00:11:42;;;;;;;2.80;1.70;;;5.90;56.50;;;;;;6180044;28;20034;-70
2021/11/30 00:14:46;;;;;;;2.38;1.63;;;5.90;56.50;;;;;;6196921;28;20417;-71
2021/11/30 00:17:47;;;;;;;2.55;1.63;;;5.90;56.40;;;;;;6196619;28;20084;-70
2021/11/30 00:20:48;;;;;;;5.35;1.80;;;5.90;56.40;;;;;;6195388;28;20038;-71
2021/11/30 00:23:49;;;;;;;6.20;2.28;;;5.80;56.40;;;;;;6197172;28;20065;-70
2021/11/30 00:26:50;;;;;;;6.97;1.90;;;5.80;56.30;;;;;;6179805;28;20034;-70
2021/11/30 00:29:51;;;;;;;4.88;2.03;;;5.80;56.30;;;;;;6196661;28;20042;-71
2021/11/30 00:32:52;;;;;;;5.63;1.90;;;5.80;56.20;;;;;;6201252;28;20049;-71
2021/11/30 00:35:53;;;;;;;3.15;1.70;;;5.80;56.10;;;;;;6187229;28;20051;-71
2021/11/30 00:38:54;;;;;;;6.07;2.33;;;5.80;56.20;;;;;;6196910;28;20456;-71
2021/11/30 00:41:58;;;;;;;2.58;1.58;;;5.80;56.20;;;;;;6178894;28;20120;-71
2021/11/30 00:45:01;;;;;;;3.10;1.95;;;5.80;56.00;;;;;;6197123;28;20034;-70
2021/11/30 00:48:08;;;;;;;2.38;1.58;;;5.90;56.00;;;;;;6196857;28;20030;-70
2021/11/30 00:51:14;;;;;;;2.33;1.75;;;5.80;55.80;;;;;;6169459;28;20038;-70
2021/11/30 00:54:17;;;;;;;2.72;1.63;;;5.80;55.70;;;;;;6155704;28;20368;-70
2021/11/30 00:57:19;;;;;;;3.35;1.80;;;5.80;55.60;;;;;;6172149;28;20380;-70
2021/11/30 01:00:20;;;;;;;3.05;1.40;;;5.80;55.60;;;;;;6172468;28;20042;-70
2021/11/30 01:03:21;;;;;;;9.50;2.30;;;5.80;55.70;;;;;;6173153;28;20035;-70
2021/11/30 01:06:22;;;;;;;2.55;1.20;;;5.80;55.80;;;;;;6139265;28;20058;-70
2021/11/30 01:09:24;;;;;;;3.78;2.15;;;5.80;55.60;;;;;;6152276;28;20039;-70
2021/11/30 01:12:25;;;;;;;4.35;1.60;;;5.80;55.60;;;;;;6142571;28;20035;-70
2021/11/30 01:15:26;;;;;;;2.47;1.70;;;5.70;55.70;;;;;;6139663;28;20356;-70
2021/11/30 01:18:28;;;;;;;9.43;2.20;;;5.70;55.80;;;;;;6171248;28;20043;-70
2021/11/30 01:21:29;;;;;;;2.78;1.83;;;5.70;55.90;;;;;;6172384;28;20118;-70
2021/11/30 01:24:30;;;;;;;4.22;2.17;;;5.70;55.90;;;;;;6172293;28;20042;-70
2021/11/30 01:27:31;;;;;;;5.57;2.17;;;5.60;55.90;;;;;;6171869;28;20031;-70
2021/11/30 01:30:32;;;;;;;5.30;2.00;;;5.60;56.10;;;;;;6172650;28;20046;-71
2021/11/30 01:33:35;;;;;;;5.07;2.28;;;5.50;56.20;;;;;;6178928;28;20093;-70
2021/11/30 01:36:36;;;;;;;4.70;2.28;;;5.50;56.50;;;;;;6143098;28;20041;-70
2021/11/30 01:39:37;;;;;;;4.95;2.05;;;5.50;56.80;;;;;;6176683;28;20034;-70
2021/11/30 01:42:43;;;;;;;6.60;2.13;;;5.50;56.90;;;;;;6142163;28;20122;-70
2021/11/30 01:45:59;;;;;;;5.15;1.58;;;5.40;56.90;;;;;;6153058;28;20026;-70
2021/11/30 01:49:21;;;;;;;2.28;1.38;;;5.40;57.00;;;;;;6176213;28;20502;-70
2021/11/30 01:52:22;;;;;;;2.88;1.88;;;5.40;57.10;;;;;;6193750;28;20049;-70
2021/11/30 01:55:23;;;;;;;2.92;1.58;;;5.30;57.20;;;;;;6179445;28;20026;-72
2021/11/30 01:58:25;;;;;;;3.78;1.73;;;5.30;57.20;;;;;;6199248;28;20030;-70
2021/11/30 02:01:26;;;;;;;4.55;2.38;;;5.30;57.30;;;;;;6200563;28;20045;-70
2021/11/30 02:04:28;;;;;;;3.08;1.45;;;5.30;57.40;;;;;;6187713;28;20460;-70
2021/11/30 02:07:30;;;;;;;1.25;1.05;;;5.30;57.40;;;;;;6182891;28;20030;-70
2021/11/30 02:10:32;;;;;;;6.60;2.65;;;5.30;58.00;;;;;;6181592;28;20483;-69
2021/11/30 02:13:33;;;;;;;6.40;2.78;;;5.40;57.50;;;;;;6199952;28;20034;-71
2021/11/30 02:16:35;;;;;;;3.88;1.92;;;5.30;57.50;;;;;;6198732;28;20034;-70
2021/11/30 02:19:49;;;;;;;3.45;2.33;;;5.20;57.50;;;;;;6199669;28;20070;-69
2021/11/30 02:22:55;;;;;;;3.60;1.95;;;5.20;57.60;;;;;;6180741;28;20125;-69
2021/11/30 02:26:01;;;;;;;5.05;2.00;;;5.20;57.60;;;;;;6191575;28;20030;-70
2021/11/30 02:29:04;;;;;;;4.45;2.00;;;5.20;57.70;;;;;;6178621;28;20046;-70
2021/11/30 02:32:05;;;;;;;3.67;2.13;;;5.10;57.70;;;;;;6182789;28;20049;-70
2021/11/30 02:35:07;;;;;;;5.22;1.92;;;5.10;57.80;;;;;;6180891;28;20096;-71
2021/11/30 02:38:09;;;;;;;7.20;2.92;;;5.10;57.90;;;;;;6180958;28;20114;-70
2021/11/30 02:41:10;;;;;;;5.05;2.53;;;5.00;57.90;;;;;;6188567;28;20034;-71
2021/11/30 02:44:17;;;;;;;12.93;1.92;;;5.00;57.80;;;;;;6187040;28;20057;-69
2021/11/30 02:47:18;;;;;;;1.48;1.15;;;4.90;57.80;;;;;;6211691;28;20097;-70
2021/11/30 02:50:19;;;;;;;4.97;2.60;;;4.90;58.00;;;;;;6196511;28;20065;-71
2021/11/30 02:53:21;;;;;;;5.05;2.15;;;4.80;58.20;;;;;;6180277;28;20121;-70
2021/11/30 02:56:22;;;;;;;6.88;2.45;;;4.80;58.30;;;;;;6179316;28;20034;-69
2021/11/30 02:59:26;;;;;;;5.63;1.83;;;4.70;58.40;;;;;;6161087;28;20054;-71
2021/11/30 03:02:28;;;;;;;14.65;3.72;;;4.60;58.50;;;;;;6167855;28;20073;-70
2021/11/30 03:05:29;;;;;;;6.85;2.55;;;4.60;58.70;;;;;;6180328;28;20037;-70
2021/11/30 03:08:30;;;;;;;5.72;2.50;;;4.60;58.80;;;;;;6189226;28;20034;-70
2021/11/30 03:11:31;;;;;;;5.00;2.15;;;4.60;58.90;;;;;;6211791;28;20034;-70
2021/11/30 03:14:32;;;;;;;5.45;2.53;;;4.50;58.90;;;;;;6196856;28;20041;-70
2021/11/30 03:17:34;;;;;;;3.35;2.05;;;4.50;59.00;;;;;;6196407;28;20459;-70
2021/11/30 03:20:35;;;;;;;7.57;2.38;;;4.60;59.10;;;;;;6179877;28;20042;-70
2021/11/30 03:23:36;;;;;;;14.00;2.20;;;4.60;59.10;;;;;;6196928;28;20113;-70
2021/11/30 03:26:37;;;;;;;5.45;2.17;;;4.60;59.00;;;;;;6196894;28;20046;-70
2021/11/30 03:29:38;;;;;;;4.57;2.40;;;4.60;59.10;;;;;;6135172;28;20034;-70
2021/11/30 03:35:58;;;;;;;4.07;1.75;;;4.50;59.30;;;;;;6194310;28;20034;-70
2021/11/30 03:39:00;;;;;;;8.77;1.73;;;4.50;59.30;;;;;;6150421;28;20109;-70
2021/11/30 03:42:02;;;;;;;3.72;1.92;;;4.50;59.30;;;;;;6178502;28;20045;-70
2021/11/30 03:45:03;;;;;;;3.10;1.92;;;4.50;59.30;;;;;;6196349;28;20077;-70
2021/11/30 03:48:05;;;;;;;3.72;1.65;;;4.50;59.40;;;;;;6162818;28;20085;-70
2021/11/30 03:51:05;;;;;;;6.43;2.35;;;4.50;59.40;;;;;;6166161;28;20042;-70
2021/11/30 03:54:07;;;;;;;3.30;1.60;;;4.50;59.40;;;;;;6170725;28;20125;-70
2021/11/30 03:57:08;;;;;;;4.65;2.10;;;4.50;59.30;;;;;;6171081;28;20488;-70
2021/11/30 04:00:11;;;;;;;5.10;2.88;;;4.50;59.30;;;;;;6153817;28;20039;-70
2021/11/30 04:03:11;;;;;;;5.75;2.53;;;4.50;59.30;;;;;;6173835;28;20487;-70
2021/11/30 04:06:12;;;;;;;5.68;2.78;;;4.40;59.40;;;;;;6172686;28;20054;-70
2021/11/30 04:09:14;;;;;;;3.90;2.28;;;4.40;59.50;;;;;;6202154;28;20126;-70
2021/11/30 04:12:15;;;;;;;12.40;2.30;;;4.40;59.50;;;;;;6172033;28;20417;-70
2021/11/30 04:15:16;;;;;;;12.13;3.13;;;4.40;59.50;;;;;;6172359;28;20467;-70
2021/11/30 04:18:17;;;;;;;3.17;1.95;;;4.40;59.40;;;;;;6172069;28;20039;-70
2021/11/30 04:21:18;;;;;;;2.80;1.60;;;4.30;59.50;;;;;;6155090;28;20086;-70
2021/11/30 04:24:19;;;;;;;5.57;2.47;;;4.30;59.60;;;;;;6154736;28;20035;-70
2021/11/30 04:27:20;;;;;;;3.53;1.95;;;4.20;59.70;;;;;;6171196;28;20039;-70
2021/11/30 04:30:21;;;;;;;2.17;1.65;;;4.20;59.80;;;;;;6170019;28;20043;-70
2021/11/30 04:33:22;;;;;;;2.97;1.70;;;4.20;59.90;;;;;;6175180;28;20035;-70
2021/11/30 04:36:23;;;;;;;3.20;1.60;;;4.10;60.00;;;;;;6171847;28;20478;-70
2021/11/30 04:39:24;;;;;;;3.13;1.85;;;4.10;60.10;;;;;;6202557;28;20043;-70
2021/11/30 04:42:27;;;;;;;3.78;2.25;;;4.10;60.20;;;;;;6169835;28;20050;-70
2021/11/30 04:52:15;;;;;;;2.92;2.03;;;4.10;60.40;;;;;;6029203;29;20120;-70
2021/11/30 04:55:30;;;;;;;4.40;2.35;;;4.10;60.40;;;;;;6051035;29;20073;-71
2021/11/30 04:58:31;;;;;;;2.53;1.65;;;4.10;60.50;;;;;;6030663;29;20044;-70
2021/11/30 05:01:32;;;;;;;4.20;2.13;;;4.10;60.60;;;;;;6027785;29;20117;-71
2021/11/30 05:04:35;;;;;;;3.08;1.90;;;4.10;60.80;;;;;;6028722;29;20038;-70
2021/11/30 05:07:36;;;;;;;2.22;1.30;;;4.10;60.90;;;;;;6033822;29;20475;-70
2021/11/30 05:10:37;;;;;;;5.05;1.63;;;4.10;61.00;;;;;;6033053;29;20057;-70
2021/11/30 05:13:38;;;;;;;7.95;2.13;;;4.10;61.00;;;;;;6032236;29;20104;-70
2021/11/30 05:16:39;;;;;;;4.47;2.38;;;4.20;61.10;;;;;;6032736;29;20137;-69
2021/11/30 05:19:40;;;;;;;5.65;1.88;;;4.20;61.20;;;;;;6032926;29;20113;-70
2021/11/30 05:22:42;;;;;;;3.67;2.22;;;4.20;61.10;;;;;;6032637;29;20114;-70
2021/11/30 05:25:44;;;;;;;8.07;2.33;;;4.20;61.20;;;;;;6048699;29;20100;-70
2021/11/30 05:28:45;;;;;;;7.30;2.05;;;4.30;61.20;;;;;;6115978;28;20035;-70
2021/11/30 05:31:46;;;;;;;7.22;2.13;;;4.30;61.00;;;;;;6175268;28;20126;-71
2021/11/30 05:34:47;;;;;;;7.15;2.33;;;4.30;60.90;;;;;;6179681;28;20112;-70
2021/11/30 05:37:47;;;;;;;10.27;3.38;;;4.30;60.80;;;;;;6161272;28;20035;-70
2021/11/30 05:40:49;;;;;;;5.40;2.65;;;4.20;60.70;;;;;;6158482;28;20042;-69
2021/11/30 05:43:50;;;;;;;4.78;2.25;;;4.30;60.80;;;;;;6175076;28;20141;-69
2021/11/30 05:46:51;;;;;;;4.07;3.13;;;4.20;60.60;;;;;;6152524;28;20043;-71
2021/11/30 05:49:53;;;;;;;2.10;1.58;;;4.20;60.70;;;;;;6175170;28;20043;-71
2021/11/30 05:52:58;;;;;;;2.65;1.80;;;4.20;60.80;;;;;;6154578;28;20042;-69
2021/11/30 05:56:01;;;;;;;4.47;1.98;;;4.20;60.80;;;;;;6157228;28;20039;-70
2021/11/30 05:59:02;;;;;;;2.50;1.83;;;4.30;61.00;;;;;;6173064;28;20038;-70
2021/11/30 06:02:04;;;;;;;5.38;2.50;;;4.30;60.90;;;;;;6161120;28;20042;-70
2021/11/30 06:05:06;;;;;;;2.53;1.95;;;4.30;61.00;;;;;;6159883;28;20346;-70
2021/11/30 06:08:07;;;;;;;3.78;2.13;;;4.30;60.80;;;;;;6175662;28;20039;-70
2021/11/30 06:11:08;;;;;;;3.20;2.13;;;4.30;60.80;;;;;;6158904;28;20038;-71
2021/11/30 06:14:09;;;;;;;4.57;2.15;;;4.30;60.90;;;;;;6158618;28;20035;-70
2021/11/30 06:17:10;;;;;;;3.75;1.98;;;4.40;60.90;;;;;;6157907;28;20167;-71
2021/11/30 06:20:12;;;;;;;2.78;1.75;;;4.30;60.70;;;;;;6158328;28;20035;-70
2021/11/30 06:23:13;;;;;;;3.53;1.88;;;4.30;60.60;;;;;;6158661;28;20085;-72
2021/11/30 06:26:15;;;;;;;6.00;2.53;;;4.40;60.50;;;;;;6141398;28;20034;-71
2021/11/30 06:29:17;;;;;;;5.00;1.92;;;4.30;60.50;;;;;;6175593;28;20045;-71
2021/11/30 06:32:18;;;;;;;5.50;2.28;;;4.30;60.50;;;;;;6175885;28;20113;-72
2021/11/30 06:35:19;;;;;;;6.35;2.33;;;4.30;60.40;;;;;;6171031;28;20092;-70
2021/11/30 06:38:20;;;;;;;4.93;2.58;;;4.30;60.40;;;;;;6159652;28;20456;-71
2021/11/30 06:41:21;;;;;;;6.72;2.28;;;4.20;60.30;;;;;;6174261;28;20030;-69
2021/11/30 06:44:23;;;;;;;5.03;2.25;;;4.10;60.30;;;;;;6157662;28;20372;-71
2021/11/30 06:47:24;;;;;;;8.95;2.88;;;4.10;60.50;;;;;;6157427;28;20027;-71
2021/11/30 06:50:25;;;;;;;3.70;2.40;;;4.10;60.60;;;;;;6144465;28;20109;-72
2021/11/30 06:53:32;;;;;;;3.15;2.15;;;4.10;60.70;;;;;;6160581;28;20471;-70
2021/11/30 06:56:33;;;;;;;6.03;3.20;;;4.10;60.80;;;;;;6164675;28;20467;-71
2021/11/30 06:59:34;;;;;;;5.43;3.03;;;4.10;60.80;;;;;;6167268;28;20026;-70
2021/11/30 07:02:36;;;;;;;8.02;2.78;;;4.10;60.80;;;;;;6174639;28;20030;-71
2021/11/30 07:05:38;;;;;;;10.00;3.25;;;4.10;60.90;;;;;;6181064;28;20038;-70
2021/11/30 07:14:50;;;;;;;7.18;3.03;;;4.10;60.80;;;;;;6190420;28;20034;-70
2021/11/30 07:17:51;;;;;;;8.48;3.35;;;4.10;60.80;;;;;;6163895;28;20046;-70
2021/11/30 07:20:53;;;;;;;8.15;3.85;;;4.10;61.00;;;;;;6180568;28;20042;-70
2021/11/30 07:23:55;;;;;;;3.25;2.60;;;4.10;61.10;;;;;;6181431;28;20129;-70
2021/11/30 07:26:56;;;;;;;7.88;3.75;;;4.20;61.10;;;;;;6179753;28;20097;-72
2021/11/30 07:29:57;;;;;;;7.68;2.55;;;4.20;60.80;;;;;;6179568;28;20066;-71
2021/11/30 07:32:58;;;;;;;6.47;3.22;;;4.20;60.70;;;;;;6184643;28;20478;-71
2021/11/30 07:36:01;;;;;;;7.00;2.60;;;4.20;60.70;;;;;;6179680;28;20034;-71
2021/11/30 07:39:03;;;;;;;6.68;2.45;;;4.20;60.70;;;;;;6179048;28;20037;-70
2021/11/30 07:42:05;;;;;;;4.38;2.58;;;4.20;60.40;;;;;;6176192;28;21797;-72
2021/11/30 07:45:07;;;;;;;8.65;3.15;;;4.30;60.40;;;;;;6197029;28;20040;-70
2021/11/30 07:48:08;;;;;;;3.75;2.45;;;4.30;60.10;;;;;;6178683;28;20066;-71
2021/11/30 07:51:10;;;;;;;6.00;2.22;;;4.30;60.20;;;;;;6196391;28;20060;-70
2021/11/30 07:54:11;;;;;;;4.47;2.75;;;4.30;60.30;;;;;;6183706;28;20038;-71
2021/11/30 07:57:12;;;;;;;11.52;3.60;;;4.30;60.20;;;;;;6196573;28;20082;-71
2021/11/30 08:00:17;;;;;;;7.03;3.55;;;4.30;60.00;;;;;;6163397;28;20049;-71
2021/11/30 08:03:20;;;;;;;8.15;3.67;;;4.30;60.00;;;;;;6164461;28;20041;-70
2021/11/30 08:06:21;;;;;;;30.02;5.15;;;4.30;60.10;;;;;;6196358;28;20115;-71
2021/11/30 08:09:22;;;;;;;6.93;3.42;;;4.40;60.10;;;;;;6179379;28;20056;-70
2021/11/30 08:12:23;;;;;;;4.97;2.67;;;4.40;60.30;;;;;;6196344;28;20050;-71
2021/11/30 08:15:25;;;;;;;7.00;4.25;;;4.40;60.00;;;;;;6197120;28;20046;-70
2021/11/30 08:18:26;;;;;;;7.50;3.05;;;4.40;59.90;;;;;;6196895;28;20173;-70
2021/11/30 08:21:29;;;;;;;5.63;3.60;;;4.40;60.00;;;;;;6161971;28;20443;-70
2021/11/30 08:24:30;;;;;;;8.27;4.57;;;4.40;59.80;;;;;;6179485;28;20041;-70
2021/11/30 08:27:31;;;;;;;11.65;4.55;;;4.50;59.90;;;;;;6196161;28;20069;-70
2021/11/30 08:30:32;;;;;;;4.95;2.63;;;4.50;59.80;;;;;;6179394;28;20052;-70
2021/11/30 08:33:33;;;;;;;4.82;2.58;;;4.60;59.70;;;;;;6182580;28;20040;-71
2021/11/30 08:36:34;;;;;;;4.28;2.20;;;4.60;59.60;;;;;;6196193;28;20030;-71
2021/11/30 08:39:37;;;;;;;12.77;3.72;;;4.70;59.50;;;;;;6184884;28;20034;-70
2021/11/30 08:42:38;;;;;;;7.20;3.83;;;4.70;59.30;;;;;;6181685;28;20152;-70
2021/11/30 08:45:39;;;;;;;6.05;3.38;;;4.80;59.50;;;;;;6200638;28;20038;-71
2021/11/30 08:48:40;;;;;;;6.38;4.10;;;4.90;59.30;;;;;;6201021;28;20172;-70
2021/11/30 08:51:42;;;;;;;8.55;4.53;;;5.00;59.10;;;;;;6199479;28;20061;-70
2021/11/30 08:54:43;;;;;;;6.30;3.33;;;5.10;59.10;;;;;;6182660;28;20121;-70
2021/11/30 08:57:45;;;;;;;7.07;3.58;;;5.20;58.90;;;;;;6200226;28;20030;-71
2021/11/30 09:00:48;;;;;;;9.52;3.05;;;5.20;58.70;;;;;;6200799;28;20040;-71
2021/11/30 09:03:49;;;;;;;10.98;4.32;;;5.30;58.30;;;;;;6189218;28;20053;-71
2021/11/30 09:06:50;;;;;;;6.50;3.08;;;5.30;58.20;;;;;;6200688;28;20042;-71
2021/11/30 09:09:51;;;;;;;15.05;4.70;;;5.40;58.20;;;;;;6183567;28;20045;-70
2021/11/30 09:12:52;;;;;;;7.15;3.47;;;5.50;57.90;;;;;;6153293;28;20089;-71
2021/11/30 09:15:53;;;;;;;8.18;3.65;;;5.30;57.50;;;;;;6190532;28;20035;-70
2021/11/30 09:18:54;;;;;;;16.08;3.97;;;5.50;57.20;;;;;;6182442;28;20096;-70
2021/11/30 09:21:55;;;;;;;10.45;3.50;;;5.50;57.20;;;;;;6170099;28;20049;-71
2021/11/30 09:24:58;;;;;;;9.18;3.92;;;5.50;57.00;;;;;;6182981;28;20034;-70
2021/11/30 09:28:01;;;;;;;13.02;4.13;;;5.50;57.60;;;;;;6163021;28;20039;-71
2021/11/30 09:31:02;;;;;;;13.20;4.15;;;5.50;57.20;;;;;;6183120;28;20046;-71
2021/11/30 09:34:04;;;;;;;11.85;5.15;;;5.50;57.30;;;;;;6198475;28;20121;-71
2021/11/30 09:37:08;;;;;;;9.55;4.22;;;5.60;57.30;;;;;;6172764;28;20038;-70
2021/11/30 09:40:15;;;;;;;15.10;3.75;;;5.70;57.50;;;;;;6215739;28;20034;-72
2021/11/30 09:43:17;;;;;;;5.68;3.50;;;5.60;57.00;;;;;;6166254;28;20089;-70
2021/11/30 09:46:19;;;;;;;7.13;4.63;;;5.70;56.90;;;;;;6182237;28;20034;-70
2021/11/30 09:49:20;;;;;;;8.70;3.75;;;5.70;57.10;;;;;;6194762;28;20088;-70
2021/11/30 09:52:21;;;;;;;5.70;3.65;;;5.90;56.90;;;;;;6172573;28;20046;-71
2021/11/30 09:55:24;;;;;;;9.55;4.70;;;6.00;56.30;;;;;;6158223;28;20075;-71
2021/11/30 09:58:26;;;;;;;4.03;2.55;;;6.10;55.70;;;;;;6174832;28;20039;-71
2021/11/30 10:01:27;;;;;;;12.68;5.00;;;6.20;55.50;;;;;;6132056;28;20386;-71
2021/11/30 10:04:29;;;;;;;10.55;4.97;;;6.30;55.20;;;;;;6161843;28;20042;-72
2021/11/30 10:07:43;;;;;;;8.15;4.18;;;6.30;55.10;;;;;;6156958;28;20066;-71
2021/11/30 10:10:43;;;;;;;6.05;3.78;;;6.50;55.10;;;;;;6157422;28;20069;-70
2021/11/30 10:13:45;;;;;;;12.48;4.63;;;6.60;54.60;;;;;;6174313;28;20472;-71
2021/11/30 10:17:08;;;;;;;9.82;5.43;;;6.80;54.30;;;;;;6157548;28;20039;-70
2021/11/30 10:20:12;;;;;;;7.72;4.35;;;7.00;53.80;;;;;;6139713;28;20038;-72
2021/11/30 10:23:16;;;;;;;11.18;5.63;;;7.20;53.50;;;;;;6173376;28;20051;-70
2021/11/30 10:26:30;;;;;;;12.02;5.75;;;7.30;53.60;;;;;;6171884;28;20348;-70
2021/11/30 10:29:41;;;;;;;13.40;6.47;;;7.60;53.20;;;;;;6138571;28;20066;-70
2021/11/30 10:32:44;;;;;;;14.57;6.82;;;7.80;52.70;;;;;;6167418;28;20038;-70
2021/11/30 10:35:50;;;;;;;17.35;5.90;;;8.00;52.30;;;;;;6158588;28;20030;-70
2021/11/30 10:38:51;;;;;;;27.10;9.82;;;8.20;52.20;;;;;;6156550;28;20078;-71
2021/11/30 10:42:11;;;;;;;15.70;6.88;;;8.40;52.00;;;;;;6187233;28;20093;-71
2021/11/30 10:45:33;;;;;;;14.43;6.10;;;8.70;51.80;;;;;;6167778;28;20049;-70
2021/11/30 10:48:34;;;;;;;16.52;7.68;;;9.10;51.10;;;;;;6174875;28;20510;-72
2021/11/30 10:51:45;;;;;;;171.52;109.13;;;9.40;50.20;;;;;;6187901;28;20034;-71
2021/11/30 10:54:47;;;;;;;9.02;5.18;;;9.80;49.90;;;;;;6192859;28;20124;-70
2021/11/30 10:57:49;;;;;;;16.85;6.30;;;10.20;48.50;;;;;;6156560;28;20042;-71
2021/11/30 11:00:51;;;;;;;9.32;4.78;;;10.60;47.60;;;;;;6161326;28;20042;-71
2021/11/30 11:04:03;;;;;;;8.00;4.32;;;10.90;46.90;;;;;;6173320;28;20066;-71
2021/11/30 11:07:05;;;;;;;11.43;5.85;;;11.40;45.80;;;;;;6153080;28;20086;-71
2021/11/30 11:10:07;;;;;;;9.18;4.50;;;11.80;45.00;;;;;;6162918;28;20049;-71
2021/11/30 11:13:25;;;;;;;7.63;3.83;;;12.30;44.50;;;;;;6154004;28;20134;-72
2021/11/30 11:16:35;;;;;;;6.85;3.88;;;12.70;43.30;;;;;;6151635;28;20165;-72
2021/11/30 11:19:39;;;;;;;12.32;5.78;;;13.00;41.80;;;;;;6171528;28;20045;-71
2021/11/30 11:22:53;;;;;;;26.30;9.85;;;13.40;40.70;;;;;;6170565;28;20039;-72
2021/11/30 11:25:54;;;;;;;13.23;4.85;;;13.60;40.30;;;;;;6171201;28;20051;-71
2021/11/30 11:28:57;;;;;;;9.05;4.85;;;13.90;39.80;;;;;;6171081;28;20042;-72
2021/11/30 11:32:08;;;;;;;12.75;4.07;;;14.10;38.20;;;;;;6157494;28;20064;-71
2021/11/30 11:35:11;;;;;;;7.60;4.13;;;14.30;37.90;;;;;;6146580;28;20464;-72
2021/11/30 11:38:13;;;;;;;255.27;220.18;;;14.20;38.20;;;;;;6154371;28;20081;-72
2021/11/30 11:41:15;;;;;;;23.10;20.85;;;13.90;38.40;;;;;;6170959;28;20045;-72
2021/11/30 11:44:16;;;;;;;15.75;5.57;;;13.40;39.90;;;;;;6154399;28;20352;-72
2021/11/30 11:47:22;;;;;;;12.30;5.53;;;12.90;40.40;;;;;;6171682;28;20106;-71
2021/11/30 11:50:22;;;;;;;81.40;73.00;;;12.40;41.30;;;;;;6174450;28;20058;-71
2021/11/30 11:53:26;;;;;;;229.68;187.05;;;12.00;42.20;;;;;;6177195;28;20112;-71
2021/11/30 11:56:31;;;;;;;7.03;4.43;;;11.60;42.70;;;;;;6192911;28;20076;-72
2021/11/30 11:59:43;;;;;;;5.60;3.35;;;11.30;42.70;;;;;;6160942;28;20041;-72
2021/11/30 12:02:53;;;;;;;9.55;5.28;;;10.90;43.20;;;;;;6196534;28;20459;-72
2021/11/30 12:05:54;;;;;;;14.82;7.75;;;10.70;43.30;;;;;;6196509;28;20039;-70
2021/11/30 12:09:09;;;;;;;23.15;9.45;;;10.40;43.60;;;;;;6178567;28;20411;-71
2021/11/30 12:12:10;;;;;;;7.13;3.63;;;10.20;43.60;;;;;;6196203;28;20132;-71
2021/11/30 12:15:11;;;;;;;7.85;3.88;;;9.90;44.20;;;;;;6196192;28;20034;-71
2021/11/30 12:18:30;;;;;;;15.63;6.18;;;9.80;44.60;;;;;;6196438;28;20030;-72
2021/11/30 12:21:32;;;;;;;9.25;3.65;;;9.70;44.90;;;;;;6196585;28;20125;-71
2021/11/30 12:24:34;;;;;;;5.82;3.67;;;9.60;45.50;;;;;;6179246;28;20041;-70
2021/11/30 12:27:40;;;;;;;6.03;3.50;;;9.50;45.80;;;;;;6194557;28;20523;-70
2021/11/30 12:30:53;;;;;;;7.28;3.47;;;9.40;45.90;;;;;;6152809;28;20097;-71
2021/11/30 12:33:54;;;;;;;8.18;3.95;;;9.30;46.00;;;;;;6197116;28;20038;-73
2021/11/30 12:37:04;;;;;;;6.28;2.90;;;9.20;46.00;;;;;;6177626;28;20468;-72
2021/11/30 12:40:11;;;;;;;12.15;4.95;;;9.00;46.20;;;;;;6178966;28;20352;-71
2021/11/30 12:43:13;;;;;;;6.43;3.85;;;9.00;46.50;;;;;;6176046;28;20027;-72
2021/11/30 12:46:33;;;;;;;7.50;3.10;;;8.90;46.70;;;;;;6177891;28;20039;-72
2021/11/30 12:49:34;;;;;;;8.13;2.95;;;9.00;46.70;;;;;;6195997;28;20045;-71
2021/11/30 12:52:43;;;;;;;7.90;2.90;;;9.00;46.70;;;;;;6196018;28;20046;-71
2021/11/30 12:55:52;;;;;;;;;;;9.10;46.80;;;;;;6195884;28;20030;-70
2021/11/30 12:58:54;;;;;;;5.63;3.22;;;9.10;46.80;;;;;;6171732;28;20012;-71
2021/11/30 13:02:20;;;;;;;5.65;3.03;;;9.30;46.30;;;;;;6180252;28;20042;-71
2021/11/30 13:05:25;;;;;;;6.72;3.53;;;9.30;46.30;;;;;;6203268;28;20042;-71
2021/11/30 13:08:26;;;;;;;8.57;3.90;;;9.30;46.50;;;;;;6194124;28;20099;-72
2021/11/30 13:11:29;;;;;;;5.88;3.35;;;9.30;46.60;;;;;;6195693;28;20038;-71
2021/11/30 13:14:30;;;;;;;10.60;4.78;;;9.40;46.60;;;;;;6193721;28;20030;-70
2021/11/30 13:17:35;;;;;;;5.95;3.20;;;9.40;46.40;;;;;;6178217;28;20126;-71
2021/11/30 13:20:36;;;;;;;5.53;2.67;;;9.40;46.10;;;;;;6157725;28;20085;-73
2021/11/30 13:23:37;;;;;;;7.78;2.85;;;9.50;46.20;;;;;;6177284;28;20034;-72
2021/11/30 13:26:40;;;;;;;8.70;3.25;;;9.60;46.20;;;;;;6196980;28;20035;-70
2021/11/30 13:30:14;;;;;;;7.53;2.95;;;9.70;46.10;;;;;;6192763;28;20344;-71
2021/11/30 13:33:22;;;;;;;5.20;2.72;;;9.80;46.20;;;;;;6180048;28;20058;-72
2021/11/30 13:36:28;;;;;;;2.95;2.10;;;9.80;45.50;;;;;;6196538;28;20045;-71
2021/11/30 13:39:29;;;;;;;8.93;2.72;;;9.90;45.30;;;;;;6165274;28;20023;-72
2021/11/30 13:42:43;;;;;;;2.03;1.65;;;9.90;45.00;;;;;;6196672;28;20137;-72
2021/11/30 13:45:55;;;;;;;4.70;2.10;;;9.90;44.90;;;;;;6180947;28;20046;-72
2021/11/30 13:49:00;;;;;;;7.85;2.50;;;9.90;44.70;;;;;;6169685;28;20061;-71
2021/11/30 13:52:01;;;;;;;4.07;2.60;;;9.90;44.80;;;;;;6197512;28;20054;-71
2021/11/30 13:55:04;;;;;;;11.23;2.45;;;9.90;44.90;;;;;;6186561;28;20218;-72
2021/11/30 13:58:48;;;;;;;4.93;2.63;;;9.90;45.00;;;;;;6110134;29;20031;-70
2021/11/30 14:02:09;;;;;;;6.95;2.90;;;9.80;45.00;;;;;;6137567;28;20039;-70
2021/11/30 14:05:14;;;;;;;7.20;2.72;;;9.70;45.20;;;;;;6123060;29;20436;-71
2021/11/30 14:08:15;;;;;;;6.72;3.13;;;9.70;45.40;;;;;;6117414;29;20052;-71
2021/11/30 14:11:18;;;;;;;8.93;3.50;;;9.70;45.60;;;;;;6123568;29;20577;-71
2021/11/30 14:14:21;;;;;;;7.68;3.30;;;9.70;45.60;;;;;;6137246;29;20070;-71
2021/11/30 14:17:30;;;;;;;6.30;2.58;;;9.80;45.60;;;;;;6145549;29;20035;-72
2021/11/30 14:20:31;;;;;;;4.32;2.50;;;9.80;45.50;;;;;;6131181;28;20050;-70
2021/11/30 14:23:32;;;;;;;4.13;2.05;;;9.80;45.40;;;;;;6136421;29;20069;-71
2021/11/30 14:26:35;;;;;;;4.18;2.28;;;9.80;45.10;;;;;;6142960;28;20427;-71
2021/11/30 14:29:38;;;;;;;12.77;4.63;;;9.70;45.30;;;;;;6131029;29;20461;-70
2021/11/30 14:32:40;;;;;;;6.72;3.65;;;9.70;45.20;;;;;;6142540;28;20050;-71
2021/11/30 14:35:47;;;;;;;8.35;3.75;;;9.60;45.00;;;;;;6157151;28;20368;-73
2021/11/30 14:38:49;;;;;;;8.68;3.30;;;9.60;45.40;;;;;;6176219;28;20046;-72
2021/11/30 14:41:51;;;;;;;8.52;2.63;;;9.60;45.60;;;;;;6190867;28;20049;-71
2021/11/30 14:45:12;;;;;;;3.60;2.40;;;9.60;45.70;;;;;;6196476;28;20061;-72
2021/11/30 14:48:18;;;;;;;9.35;2.83;;;9.50;45.60;;;;;;6197180;28;20034;-70
2021/11/30 14:51:19;;;;;;;7.38;2.92;;;9.40;45.70;;;;;;6197237;28;20495;-71
2021/11/30 14:54:20;;;;;;;6.50;3.60;;;9.40;45.90;;;;;;6197208;28;20054;-71
2021/11/30 14:57:27;;;;;;;6.57;3.50;;;9.30;45.70;;;;;;6196071;28;20034;-71
2021/11/30 15:00:35;;;;;;;4.72;2.25;;;9.30;45.60;;;;;;6180099;28;20423;-71
2021/11/30 15:03:46;;;;;;;8.70;3.33;;;9.20;46.00;;;;;;6196799;28;20442;-71
2021/11/30 15:06:47;;;;;;;12.05;5.05;;;9.10;46.30;;;;;;6195858;28;20070;-70
2021/11/30 15:09:49;;;;;;;13.20;4.15;;;9.10;46.60;;;;;;6180025;28;20065;-72
2021/11/30 15:12:50;;;;;;;6.68;2.88;;;9.00;46.70;;;;;;6195813;28;20035;-71
2021/11/30 15:15:52;;;;;;;9.15;3.22;;;9.00;46.90;;;;;;6180265;28;20042;-71
2021/11/30 15:19:29;;;;;;;11.05;3.35;;;8.90;47.10;;;;;;6197467;28;20041;-71
2021/11/30 15:22:34;;;;;;;4.72;2.25;;;8.90;47.20;;;;;;6174959;28;20419;-71
2021/11/30 15:25:35;;;;;;;6.90;3.60;;;8.80;47.20;;;;;;6193244;28;20026;-73
2021/11/30 15:28:36;;;;;;;5.57;3.25;;;8.80;47.10;;;;;;6192373;28;20093;-73
2021/11/30 15:31:38;;;;;;;6.63;2.88;;;8.70;47.30;;;;;;6150713;28;20038;-71
2021/11/30 15:34:39;;;;;;;7.63;3.50;;;8.70;47.40;;;;;;6182563;28;20109;-71
2021/11/30 15:37:44;;;;;;;8.43;3.78;;;8.70;47.60;;;;;;6181364;28;20053;-71
2021/11/30 15:40:45;;;;;;;7.93;4.05;;;8.70;48.20;;;;;;6158477;28;20073;-71
2021/11/30 15:43:46;;;;;;;17.38;3.92;;;8.70;47.80;;;;;;6177695;28;20039;-71
2021/11/30 15:46:47;;;;;;;7.05;3.40;;;8.60;47.80;;;;;;6195579;28;20034;-72
2021/11/30 15:49:48;;;;;;;9.70;3.42;;;8.60;47.90;;;;;;6177064;28;20038;-71
2021/11/30 15:52:49;;;;;;;8.57;3.50;;;8.60;47.90;;;;;;6134345;28;20051;-71
2021/11/30 15:59:11;;;;;;;6.80;3.00;;;8.60;48.00;;;;;;6169937;28;20043;-72
2021/11/30 16:02:14;;;;;;;7.38;3.33;;;8.50;48.00;;;;;;6176006;28;20038;-72
2021/11/30 16:05:15;;;;;;;5.60;3.30;;;8.50;48.90;;;;;;6170042;28;20139;-72
2021/11/30 16:08:16;;;;;;;10.38;3.88;;;8.40;48.40;;;;;;6171058;28;20035;-71
2021/11/30 16:11:18;;;;;;;9.50;3.65;;;8.40;48.60;;;;;;6152321;28;20050;-71
2021/11/30 16:14:21;;;;;;;15.25;3.67;;;8.40;48.60;;;;;;6164698;28;20081;-71
2021/11/30 16:17:22;;;;;;;8.30;4.07;;;8.30;48.70;;;;;;6168957;28;20328;-71
2021/11/30 16:20:23;;;;;;;9.20;3.90;;;8.30;48.90;;;;;;6169648;28;20109;-74
2021/11/30 16:23:24;;;;;;;5.88;3.83;;;8.30;49.00;;;;;;6155656;28;20440;-71
2021/11/30 16:26:25;;;;;;;7.28;3.45;;;8.20;49.00;;;;;;6170326;28;20047;-72